Cielo Di Vaiano — D5AQ2 — position and weather

sailwx.info

Track history (hours):
 
Tides and Currents Weather Stations Pressure Air Temp Water Temp Dewpoint Dewpoint Depression Visibility Wind Speed Wind Dir Waves Ship Positions

Cielo Di Vaiano

Last reported at 2014-Sep-16 16:33 UTC. Time now 2014-Sep-16 17:29 UTC.
Position N 43°33' E 010°18'.

Length 183 m; draft 9.1 m.

Type: Cargo ship. MMSI: 636015421.

Date/timePositionNaut miles runAvg speedWind from/ knotsBaromVisibWave heightAir tempDewpointWater temp
2014-Sep-16 16:33N 43°33' E 010°18'0 0.0
2014-Sep-16 15:33N 43°33' E 010°18'0 0.0
2014-Sep-16 14:33N 43°33' E 010°18'0 0.0
2014-Sep-16 13:33N 43°33' E 010°18'0 0.0
2014-Sep-16 12:33N 43°33' E 010°18'0 0.0
2014-Sep-16 11:33N 43°33' E 010°18'0 0.0
2014-Sep-16 10:33N 43°33' E 010°18'0 0.0
2014-Sep-16 09:33N 43°33' E 010°18'0 0.0
2014-Sep-16 08:33N 43°33' E 010°18'0 0.0
2014-Sep-16 07:33N 43°33' E 010°18'0 0.0
2014-Sep-16 06:33N 43°33' E 010°18'0 0.0
2014-Sep-16 05:33N 43°33' E 010°18'0 0.0
2014-Sep-16 04:33N 43°33' E 010°18'0 0.0
2014-Sep-16 03:33N 43°33' E 010°18'0 0.0
2014-Sep-16 02:33N 43°33' E 010°18'0 0.0
2014-Sep-16 01:34N 43°33' E 010°18'5 4.5
2014-Sep-16 00:34N 43°30' E 010°13'1212.5
2014-Sep-15 23:34N 43°32' E 009°56'1313.3
2014-Sep-15 22:34N 43°40' E 009°42'1313.0
2014-Sep-15 21:34N 43°48' E 009°27'1312.6
2014-Sep-15 20:34N 43°56' E 009°14'1312.6
2014-Sep-15 19:34N 44°03' E 008°60'1312.8
2014-Sep-15 18:33N 44°11' E 008°45'1312.7
2014-Sep-15 17:33N 44°19' E 008°31'1 1.2
2014-Sep-15 16:32N 44°19' E 008°30'0 0.0
2014-Sep-15 15:32N 44°19' E 008°30'0 0.0
2014-Sep-15 14:23N 44°19' E 008°30'0 0.0
2014-Sep-15 13:26N 44°19' E 008°30'0 0.0
2014-Sep-15 12:20N 44°19' E 008°30'0 0.0
2014-Sep-15 11:32N 44°19' E 008°30'0 0.0
2014-Sep-15 10:26N 44°19' E 008°30'0 0.0
2014-Sep-15 09:20N 44°19' E 008°30'0 0.0
2014-Sep-15 08:32N 44°19' E 008°30'0 0.0
2014-Sep-15 07:29N 44°19' E 008°30'0 0.0
2014-Sep-15 06:26N 44°19' E 008°30'0 0.0
2014-Sep-15 05:23N 44°19' E 008°30'0 0.6
2014-Sep-15 04:32N 44°19' E 008°30'1 0.9
2014-Sep-15 03:32N 44°18' E 008°30'0 0.0
2014-Sep-15 02:32N 44°18' E 008°31'0 0.0
2014-Sep-15 01:32N 44°18' E 008°31'0 0.0
2014-Sep-15 00:32N 44°18' E 008°31'0 0.0
2014-Sep-14 23:32N 44°18' E 008°31'0 0.0
2014-Sep-14 22:32N 44°18' E 008°31'0 0.0
2014-Sep-14 21:29N 44°18' E 008°31'0 0.0
2014-Sep-14 20:32N 44°18' E 008°31'0 0.0
2014-Sep-14 19:32N 44°18' E 008°30'0 0.0
2014-Sep-14 18:32N 44°18' E 008°30'0 0.0
2014-Sep-14 17:32N 44°18' E 008°30'0 0.0
2014-Sep-14 16:26N 44°18' E 008°30'0 0.1
2014-Sep-14 15:26N 44°18' E 008°31'0 0.1
2014-Sep-14 14:32N 44°18' E 008°31'0 0.0
2014-Sep-14 12:20N 44°18' E 008°31'0 0.0
2014-Sep-14 11:32N 44°18' E 008°31'0 0.0
2014-Sep-14 07:32N 44°18' E 008°31'0 0.0
2014-Sep-14 06:14N 44°18' E 008°31'0 0.0
2014-Sep-14 05:32N 44°18' E 008°31'0 0.0
2014-Sep-14 04:05N 44°18' E 008°31'0 0.0
2014-Sep-14 03:29N 44°18' E 008°31'0 0.0
2014-Sep-14 02:32N 44°18' E 008°31'0 0.0
2014-Sep-14 01:32N 44°18' E 008°31'0 0.0
2014-Sep-13 21:32N 44°18' E 008°31'2 1.9
2014-Sep-13 20:31N 44°16' E 008°31'9 9.4
2014-Sep-13 19:33N 44°07' E 008°33'1212.2
2014-Sep-13 18:33N 43°56' E 008°26'1612.6
2014-Sep-13 17:17N 43°43' E 008°12'912.4
2014-Sep-13 16:33N 43°37' E 008°04'1412.3
2014-Sep-13 15:25N 43°27' E 007°50'1212.4
2014-Sep-13 14:28N 43°21' E 007°36'1512.3
2014-Sep-13 13:17N 43°12' E 007°20'912.3
2014-Sep-13 12:33N 43°07' E 007°10'1212.4
2014-Sep-13 11:34N 42°59' E 006°57'1212.1
2014-Sep-13 10:32N 42°52' E 006°43'1212.2
2014-Sep-13 09:32N 42°45' E 006°29'1212.2
2014-Sep-13 08:33N 42°40' E 006°14'1212.0
2014-Sep-13 07:33N 42°36' E 005°59'1712.9
2014-Sep-13 06:12N 42°29' E 005°37'6912.0
2014-Sep-13 00:25N 42°03' E 004°10'1111.8
2014-Sep-12 23:28N 41°58' E 003°57'1212.8
2014-Sep-12 22:32N 41°52' E 003°43'1615.4
2014-Sep-12 21:30N 41°44' E 003°25'1010.7
2014-Sep-12 20:32N 41°38' E 003°13'1313.2
2014-Sep-12 19:33N 41°31' E 002°58'1313.2
2014-Sep-12 18:33N 41°24' E 002°44'1313.1
2014-Sep-12 17:32N 41°17' E 002°28'1512.8
2014-Sep-12 16:21N 41°10' E 002°11'1113.6
2014-Sep-12 15:33N 41°05' E 001°58'1312.4
2014-Sep-12 14:31N 41°00' E 001°43'1312.2
2014-Sep-12 13:28N 41°01' E 001°26'1111.5
2014-Sep-12 12:33N 41°04' E 001°12'3 1.9
2014-Sep-12 11:05N 41°06' E 001°15'0 0.0
2014-Sep-12 09:32N 41°06' E 001°15'0 0.0
2014-Sep-12 04:21N 41°06' E 001°15'0 0.0
2014-Sep-12 02:18N 41°06' E 001°15'0 0.0
2014-Sep-11 23:18N 41°06' E 001°15'0 0.0
2014-Sep-11 22:33N 41°06' E 001°15'0 0.0
2014-Sep-11 20:30N 41°06' E 001°15'0 0.0
2014-Sep-11 19:15N 41°06' E 001°15'0 0.0
2014-Sep-11 17:15N 41°06' E 001°15'0 0.0
2014-Sep-11 16:23N 41°06' E 001°15'0 0.0
2014-Sep-11 15:33N 41°06' E 001°15'0 0.0
2014-Sep-11 14:24N 41°06' E 001°15'0 0.0
2014-Sep-11 13:33N 41°06' E 001°15'0 0.0
2014-Sep-11 12:33N 41°06' E 001°15'0 0.0
2014-Sep-11 11:33N 41°06' E 001°15'0 0.0
2014-Sep-11 10:33N 41°06' E 001°15'0 0.0
2014-Sep-11 09:28N 41°06' E 001°15'0 0.0
2014-Sep-11 08:14N 41°06' E 001°15'0 0.0
2014-Sep-11 07:29N 41°06' E 001°15'0 0.0
2014-Sep-11 06:32N 41°06' E 001°15'0 0.0
2014-Sep-11 03:30N 41°06' E 001°15'0 0.0
2014-Sep-11 02:06N 41°06' E 001°15'0 0.0
2014-Sep-10 23:33N 41°06' E 001°15'0 0.0
2014-Sep-10 22:19N 41°06' E 001°15'0 0.0
2014-Sep-10 21:30N 41°06' E 001°15'0 0.0
2014-Sep-10 17:19N 41°06' E 001°15'0 0.0
2014-Sep-10 12:32N 41°06' E 001°15'0 0.0
2014-Sep-10 11:12N 41°06' E 001°15'0 0.0
2014-Sep-10 10:26N 41°06' E 001°15'3 2.9
2014-Sep-10 09:30N 41°04' E 001°12'7 7.3
2014-Sep-10 08:33N 40°57' E 001°13'1111.5
2014-Sep-10 07:33N 40°46' E 001°10'1312.9
2014-Sep-10 06:33N 40°33' E 001°05'1313.5
2014-Sep-10 05:33N 40°20' E 001°01'1413.7
2014-Sep-10 04:33N 40°07' E 000°57'1413.5
2014-Sep-10 03:33N 39°54' E 000°52'1313.4
2014-Sep-10 02:33N 39°41' E 000°48'2713.5
2014-Sep-10 00:33N 39°15' E 000°40'1413.6
2014-Sep-09 23:33N 39°01' E 000°35'2713.3
2014-Sep-09 21:32N 38°37' E 000°23'1413.3
2014-Sep-09 20:31N 38°25' E 000°13'1813.3
2014-Sep-09 19:08N 38°10' E 000°01'1113.5
2014-Sep-09 18:21N 38°01' W 000°07'1113.6
2014-Sep-09 17:33N 37°52' W 000°14'1413.5
2014-Sep-09 16:32N 37°40' W 000°24'1613.5
2014-Sep-09 15:19N 37°28' W 000°37'1013.3
2014-Sep-09 14:33N 37°21' W 000°47'22912.7
2014-Sep-08 20:33N 36°00' W 005°15'  
Track history (hours):
 
Tides and Currents Weather Stations Pressure Air Temp Water Temp Dewpoint Dewpoint Depression Visibility Wind Speed Wind Dir Waves Ship Positions

Cielo Di Vaiano

Last reported at 2014-Sep-16 16:33 UTC. Time now 2014-Sep-16 17:29 UTC.
Position N 43°33' E 010°18'.

Length 183 m; draft 9.1 m.

Type: Cargo ship. MMSI: 636015421.

Date/timePositionNaut miles runAvg speedWind from/ knotsBaromVisibWave heightAir tempDewpointWater temp
2014-Sep-16 16:33N 43°33' E 010°18'0 0.0
2014-Sep-16 15:33N 43°33' E 010°18'0 0.0
2014-Sep-16 14:33N 43°33' E 010°18'0 0.0
2014-Sep-16 13:33N 43°33' E 010°18'0 0.0
2014-Sep-16 12:33N 43°33' E 010°18'0 0.0
2014-Sep-16 11:33N 43°33' E 010°18'0 0.0
2014-Sep-16 10:33N 43°33' E 010°18'0 0.0
2014-Sep-16 09:33N 43°33' E 010°18'0 0.0
2014-Sep-16 08:33N 43°33' E 010°18'0 0.0
2014-Sep-16 07:33N 43°33' E 010°18'0 0.0
2014-Sep-16 06:33N 43°33' E 010°18'0 0.0
2014-Sep-16 05:33N 43°33' E 010°18'0 0.0
2014-Sep-16 04:33N 43°33' E 010°18'0 0.0
2014-Sep-16 03:33N 43°33' E 010°18'0 0.0
2014-Sep-16 02:33N 43°33' E 010°18'0 0.0
2014-Sep-16 01:34N 43°33' E 010°18'5 4.5
2014-Sep-16 00:34N 43°30' E 010°13'1212.5
2014-Sep-15 23:34N 43°32' E 009°56'1313.3
2014-Sep-15 22:34N 43°40' E 009°42'1313.0
2014-Sep-15 21:34N 43°48' E 009°27'1312.6
2014-Sep-15 20:34N 43°56' E 009°14'1312.6
2014-Sep-15 19:34N 44°03' E 008°60'1312.8
2014-Sep-15 18:33N 44°11' E 008°45'1312.7
2014-Sep-15 17:33N 44°19' E 008°31'1 1.2
2014-Sep-15 16:32N 44°19' E 008°30'0 0.0
2014-Sep-15 15:32N 44°19' E 008°30'0 0.0
2014-Sep-15 14:23N 44°19' E 008°30'0 0.0
2014-Sep-15 13:26N 44°19' E 008°30'0 0.0
2014-Sep-15 12:20N 44°19' E 008°30'0 0.0
2014-Sep-15 11:32N 44°19' E 008°30'0 0.0
2014-Sep-15 10:26N 44°19' E 008°30'0 0.0
2014-Sep-15 09:20N 44°19' E 008°30'0 0.0
2014-Sep-15 08:32N 44°19' E 008°30'0 0.0
2014-Sep-15 07:29N 44°19' E 008°30'0 0.0
2014-Sep-15 06:26N 44°19' E 008°30'0 0.0
2014-Sep-15 05:23N 44°19' E 008°30'0 0.6
2014-Sep-15 04:32N 44°19' E 008°30'1 0.9
2014-Sep-15 03:32N 44°18' E 008°30'0 0.0
2014-Sep-15 02:32N 44°18' E 008°31'0 0.0
2014-Sep-15 01:32N 44°18' E 008°31'0 0.0
2014-Sep-15 00:32N 44°18' E 008°31'0 0.0
2014-Sep-14 23:32N 44°18' E 008°31'0 0.0
2014-Sep-14 22:32N 44°18' E 008°31'0 0.0
2014-Sep-14 21:29N 44°18' E 008°31'0 0.0
2014-Sep-14 20:32N 44°18' E 008°31'0 0.0
2014-Sep-14 19:32N 44°18' E 008°30'0 0.0
2014-Sep-14 18:32N 44°18' E 008°30'0 0.0
2014-Sep-14 17:32N 44°18' E 008°30'0 0.0
2014-Sep-14 16:26N 44°18' E 008°30'0 0.1
2014-Sep-14 15:26N 44°18' E 008°31'0 0.1
2014-Sep-14 14:32N 44°18' E 008°31'0 0.0
2014-Sep-14 12:20N 44°18' E 008°31'0 0.0
2014-Sep-14 11:32N 44°18' E 008°31'0 0.0
2014-Sep-14 07:32N 44°18' E 008°31'0 0.0
2014-Sep-14 06:14N 44°18' E 008°31'0 0.0
2014-Sep-14 05:32N 44°18' E 008°31'0 0.0
2014-Sep-14 04:05N 44°18' E 008°31'0 0.0
2014-Sep-14 03:29N 44°18' E 008°31'0 0.0
2014-Sep-14 02:32N 44°18' E 008°31'0 0.0
2014-Sep-14 01:32N 44°18' E 008°31'0 0.0
2014-Sep-13 21:32N 44°18' E 008°31'2 1.9
2014-Sep-13 20:31N 44°16' E 008°31'9 9.4
2014-Sep-13 19:33N 44°07' E 008°33'1212.2
2014-Sep-13 18:33N 43°56' E 008°26'1612.6
2014-Sep-13 17:17N 43°43' E 008°12'912.4
2014-Sep-13 16:33N 43°37' E 008°04'1412.3
2014-Sep-13 15:25N 43°27' E 007°50'1212.4
2014-Sep-13 14:28N 43°21' E 007°36'1512.3
2014-Sep-13 13:17N 43°12' E 007°20'912.3
2014-Sep-13 12:33N 43°07' E 007°10'1212.4
2014-Sep-13 11:34N 42°59' E 006°57'1212.1
2014-Sep-13 10:32N 42°52' E 006°43'1212.2
2014-Sep-13 09:32N 42°45' E 006°29'1212.2
2014-Sep-13 08:33N 42°40' E 006°14'1212.0
2014-Sep-13 07:33N 42°36' E 005°59'1712.9
2014-Sep-13 06:12N 42°29' E 005°37'6912.0
2014-Sep-13 00:25N 42°03' E 004°10'1111.8
2014-Sep-12 23:28N 41°58' E 003°57'1212.8
2014-Sep-12 22:32N 41°52' E 003°43'1615.4
2014-Sep-12 21:30N 41°44' E 003°25'1010.7
2014-Sep-12 20:32N 41°38' E 003°13'1313.2
2014-Sep-12 19:33N 41°31' E 002°58'1313.2
2014-Sep-12 18:33N 41°24' E 002°44'1313.1
2014-Sep-12 17:32N 41°17' E 002°28'1512.8
2014-Sep-12 16:21N 41°10' E 002°11'1113.6
2014-Sep-12 15:33N 41°05' E 001°58'1312.4
2014-Sep-12 14:31N 41°00' E 001°43'1312.2
2014-Sep-12 13:28N 41°01' E 001°26'1111.5
2014-Sep-12 12:33N 41°04' E 001°12'3 1.9
2014-Sep-12 11:05N 41°06' E 001°15'0 0.0
2014-Sep-12 09:32N 41°06' E 001°15'0 0.0
2014-Sep-12 04:21N 41°06' E 001°15'0 0.0
2014-Sep-12 02:18N 41°06' E 001°15'0 0.0
2014-Sep-11 23:18N 41°06' E 001°15'0 0.0
2014-Sep-11 22:33N 41°06' E 001°15'0 0.0
2014-Sep-11 20:30N 41°06' E 001°15'0 0.0
2014-Sep-11 19:15N 41°06' E 001°15'0 0.0
2014-Sep-11 17:15N 41°06' E 001°15'0 0.0
2014-Sep-11 16:23N 41°06' E 001°15'0 0.0
2014-Sep-11 15:33N 41°06' E 001°15'0 0.0
2014-Sep-11 14:24N 41°06' E 001°15'0 0.0
2014-Sep-11 13:33N 41°06' E 001°15'0 0.0
2014-Sep-11 12:33N 41°06' E 001°15'0 0.0
2014-Sep-11 11:33N 41°06' E 001°15'0 0.0
2014-Sep-11 10:33N 41°06' E 001°15'0 0.0
2014-Sep-11 09:28N 41°06' E 001°15'0 0.0
2014-Sep-11 08:14N 41°06' E 001°15'0 0.0
2014-Sep-11 07:29N 41°06' E 001°15'0 0.0
2014-Sep-11 06:32N 41°06' E 001°15'0 0.0
2014-Sep-11 03:30N 41°06' E 001°15'0 0.0
2014-Sep-11 02:06N 41°06' E 001°15'0 0.0
2014-Sep-10 23:33N 41°06' E 001°15'0 0.0
2014-Sep-10 22:19N 41°06' E 001°15'0 0.0
2014-Sep-10 21:30N 41°06' E 001°15'0 0.0
2014-Sep-10 17:19N 41°06' E 001°15'0 0.0
2014-Sep-10 12:32N 41°06' E 001°15'0 0.0
2014-Sep-10 11:12N 41°06' E 001°15'0 0.0
2014-Sep-10 10:26N 41°06' E 001°15'3 2.9
2014-Sep-10 09:30N 41°04' E 001°12'7 7.3
2014-Sep-10 08:33N 40°57' E 001°13'1111.5
2014-Sep-10 07:33N 40°46' E 001°10'1312.9
2014-Sep-10 06:33N 40°33' E 001°05'1313.5
2014-Sep-10 05:33N 40°20' E 001°01'1413.7
2014-Sep-10 04:33N 40°07' E 000°57'1413.5
2014-Sep-10 03:33N 39°54' E 000°52'1313.4
2014-Sep-10 02:33N 39°41' E 000°48'2713.5
2014-Sep-10 00:33N 39°15' E 000°40'1413.6
2014-Sep-09 23:33N 39°01' E 000°35'2713.3
2014-Sep-09 21:32N 38°37' E 000°23'1413.3
2014-Sep-09 20:31N 38°25' E 000°13'1813.3
2014-Sep-09 19:08N 38°10' E 000°01'1113.5
2014-Sep-09 18:21N 38°01' W 000°07'1113.6
2014-Sep-09 17:33N 37°52' W 000°14'1413.5
2014-Sep-09 16:32N 37°40' W 000°24'1613.5
2014-Sep-09 15:19N 37°28' W 000°37'1013.3
2014-Sep-09 14:33N 37°21' W 000°47'22912.7
2014-Sep-08 20:33N 36°00' W 005°15'  

Dump ship's entire track history